Time;durP1;ratioP1;P1;durP2;ratioP2;P2;SDS_P1;SDS_P2;PMS_P1;PMS_P2;Temp;Humidity;BMP_temperature;BMP_pressure;BME280_temperature;BME280_humidity;BME280_pressure;Samples;Min_cycle;Max_cycle;Signal;HPM_P1;HPM_P2
2022/01/22 00:00:25;;;;;;;18.23;3.50;;;;;;;7.14;100.00;103412.75;5101776;28;20055;-73
2022/01/22 00:02:51;;;;;;;17.05;3.50;;;;;;;6.93;100.00;103422.59;5101538;28;20027;-73
2022/01/22 00:05:20;;;;;;;18.95;3.58;;;;;;;7.13;100.00;103421.97;5093737;28;20032;-72
2022/01/22 00:07:46;;;;;;;13.80;3.33;;;;;;;7.32;100.00;103420.47;5080798;28;20512;-73
2022/01/22 00:10:19;;;;;;;12.80;3.33;;;;;;;7.26;100.00;103415.78;5067036;28;20480;-73
2022/01/22 00:15:17;;;;;;;12.95;3.38;;;;;;;6.97;100.00;103407.56;5083554;28;20054;-73
2022/01/22 00:17:44;;;;;;;14.00;3.75;;;;;;;6.89;100.00;103412.31;5081680;28;20031;-73
2022/01/22 00:20:12;;;;;;;10.75;2.95;;;;;;;6.79;100.00;103410.72;5097685;28;20023;-73
2022/01/22 00:22:38;;;;;;;14.88;2.90;;;;;;;7.02;100.00;103411.56;5099505;28;20019;-73
2022/01/22 00:25:08;;;;;;;18.85;3.20;;;;;;;6.79;100.00;103409.91;5102284;28;20035;-74
2022/01/22 00:27:35;;;;;;;17.73;3.63;;;;;;;6.97;100.00;103406.72;5103301;28;20476;-73
2022/01/22 00:30:01;;;;;;;13.70;3.15;;;;;;;6.87;100.00;103415.22;5095660;28;20159;-73
2022/01/22 00:32:26;;;;;;;14.23;3.20;;;;;;;6.78;100.00;103413.66;5086523;28;20080;-74
2022/01/22 00:34:52;;;;;;;14.38;3.10;;;;;;;7.03;100.00;103410.53;5102399;28;20115;-74
2022/01/22 00:37:17;;;;;;;16.02;3.40;;;;;;;6.94;100.00;103399.75;5085023;28;20107;-72
2022/01/22 00:39:42;;;;;;;12.55;3.30;;;;;;;6.96;100.00;103399.56;5088759;28;20528;-74
2022/01/22 00:42:12;;;;;;;13.10;2.90;;;;;;;7.01;100.00;103391.66;5103180;28;20202;-73
2022/01/22 00:44:38;;;;;;;13.05;3.00;;;;;;;6.86;100.00;103391.72;5088369;28;20031;-74
2022/01/22 00:47:05;;;;;;;12.25;3.13;;;;;;;6.96;100.00;103385.94;5101697;28;20089;-74
2022/01/22 00:49:31;;;;;;;15.57;3.30;;;;;;;6.89;100.00;103394.06;5094510;28;20092;-73
2022/01/22 00:51:58;;;;;;;19.27;4.32;;;;;;;7.04;100.00;103396.72;5097453;28;20019;-73
2022/01/22 00:54:24;;;;;;;13.82;3.55;;;;;;;7.08;100.00;103398.00;5086274;28;20480;-73
2022/01/22 00:56:51;;;;;;;18.98;3.85;;;;;;;6.93;100.00;103398.06;5090878;28;20047;-74
2022/01/22 00:59:17;;;;;;;13.00;3.65;;;;;;;6.88;100.00;103392.34;5065176;28;20043;-72
2022/01/22 01:01:43;;;;;;;15.15;4.30;;;;;;;6.84;100.00;103384.75;5098987;28;20031;-74
2022/01/22 01:04:10;;;;;;;13.25;4.05;;;;;;;6.82;100.00;103398.56;5098332;28;20039;-72
2022/01/22 01:06:37;;;;;;;12.10;4.28;;;;;;;6.94;100.00;103401.66;5093715;28;20223;-74
2022/01/22 01:09:08;;;;;;;11.50;3.80;;;;;;;6.92;100.00;103390.94;5106059;28;20020;-73
2022/01/22 01:11:38;;;;;;;14.45;3.58;;;;;;;7.11;100.00;103400.34;5106050;28;20203;-72
2022/01/22 01:14:07;;;;;;;16.88;4.00;;;;;;;7.21;100.00;103393.72;5099969;28;20017;-73
2022/01/22 01:32:54;;;;;;;15.27;4.15;;;;;;;7.22;100.00;103389.94;5093736;28;20378;-74
2022/01/22 01:35:21;;;;;;;16.88;4.18;;;;;;;7.07;100.00;103400.94;5093733;28;20028;-72
2022/01/22 01:37:46;;;;;;;13.88;3.60;;;;;;;7.31;100.00;103396.94;5047205;28;20502;-74
2022/01/22 01:40:16;;;;;;;13.50;3.22;;;;;;;7.21;100.00;103388.25;5103828;28;20031;-74
2022/01/22 01:45:13;;;;;;;14.88;3.38;;;;;;;7.25;100.00;103390.41;5087719;28;20028;-74
2022/01/22 01:47:42;;;;;;;10.30;3.10;;;;;;;7.08;100.00;103388.97;5110358;28;20488;-73
2022/01/22 01:50:08;;;;;;;11.80;2.95;;;;;;;7.24;100.00;103391.41;5103757;28;20500;-73
2022/01/22 01:52:45;;;;;;;13.23;3.00;;;;;;;7.21;100.00;103389.09;5079646;28;20039;-73
2022/01/22 01:55:20;;;;;;;9.88;3.38;;;;;;;7.25;100.00;103384.94;5103815;28;20031;-73
2022/01/22 01:57:46;;;;;;;10.57;2.70;;;;;;;7.26;100.00;103383.03;5093693;28;20051;-72
2022/01/22 02:00:25;;;;;;;10.23;2.45;;;;;;;7.25;100.00;103390.41;5094837;28;20028;-73
2022/01/22 02:02:52;;;;;;;10.38;2.45;;;;;;;7.18;100.00;103381.28;5103123;28;20157;-72
2022/01/22 02:05:21;;;;;;;11.77;2.70;;;;;;;7.35;100.00;103379.13;5103720;28;20055;-73
2022/01/22 02:07:48;;;;;;;13.63;2.65;;;;;;;7.13;100.00;103375.59;5079997;28;20164;-73
2022/01/22 02:10:22;;;;;;;13.27;2.75;;;;;;;7.19;100.00;103385.72;5101611;28;20070;-73
2022/01/22 02:23:54;;;;;;;15.68;3.03;;;;;;;7.58;100.00;103395.25;5079553;28;20035;-73
2022/01/22 02:26:21;;;;;;;10.13;2.63;;;;;;;7.77;100.00;103392.84;5083135;28;20039;-74
2022/01/22 02:28:51;;;;;;;12.48;3.10;;;;;;;7.64;100.00;103393.59;5063495;28;20035;-73
2022/01/22 02:31:27;;;;;;;13.40;2.88;;;;;;;7.60;100.00;103390.44;5082674;28;20093;-73
2022/01/22 02:34:04;;;;;;;12.65;3.33;;;;;;;7.36;100.00;103389.84;5049564;28;1344478;-73
2022/01/22 02:36:41;;;;;;;16.42;3.47;;;;;;;7.13;100.00;103392.81;5085535;28;20105;-73
2022/01/22 02:41:37;;;;;;;11.68;3.38;;;;;;;7.24;100.00;103388.69;5081783;28;20028;-74
2022/01/22 02:44:02;;;;;;;14.48;3.70;;;;;;;7.15;100.00;103395.34;5095592;28;20063;-72
2022/01/22 02:46:29;;;;;;;11.05;3.58;;;;;;;7.26;100.00;103402.97;5087862;28;20415;-72
2022/01/22 02:48:56;;;;;;;14.98;3.10;;;;;;;7.08;100.00;103395.25;5090464;28;20024;-73
2022/01/22 02:51:26;;;;;;;13.75;3.38;;;;;;;7.13;100.00;103392.81;5097565;28;20146;-73
2022/01/22 02:53:55;;;;;;;19.20;3.05;;;;;;;7.09;100.00;103390.66;5086655;28;20409;-72
2022/01/22 02:56:23;;;;;;;18.33;3.28;;;;;;;7.16;100.00;103388.84;5087257;28;20034;-72
2022/01/22 02:58:51;;;;;;;17.65;3.67;;;;;;;7.43;100.00;103386.31;5094240;28;20186;-73
2022/01/22 03:01:18;;;;;;;9.88;2.90;;;;;;;7.34;100.00;103383.72;5082589;28;20373;-73
2022/01/22 03:03:43;;;;;;;10.10;3.28;;;;;;;7.47;100.00;103383.00;5082591;28;20036;-73
2022/01/22 03:06:09;;;;;;;12.95;2.70;;;;;;;7.28;100.00;103391.88;5101961;28;20529;-73
2022/01/22 03:08:35;;;;;;;11.95;2.72;;;;;;;7.43;100.00;103397.22;5084556;28;20477;-73
2022/01/22 03:11:05;;;;;;;13.48;2.90;;;;;;;7.79;100.00;103396.22;5088972;28;20028;-73
2022/01/22 03:16:47;;;;;;;17.50;2.67;;;;;;;7.40;100.00;103387.56;5048023;28;20040;-72
2022/01/22 03:19:30;;;;;;;13.32;2.88;;;;;;;7.24;100.00;103391.41;5053418;28;20120;-73
2022/01/22 03:22:14;;;;;;;12.02;2.80;;;;;;;7.31;100.00;103395.06;5082186;28;20038;-73
2022/01/22 03:27:28;;;;;;;16.60;3.40;;;;;;;7.31;100.00;103403.25;5096850;28;20538;-72
2022/01/22 03:29:54;;;;;;;10.57;2.58;;;;;;;7.34;100.00;103402.84;5079648;28;20438;-74
2022/01/22 03:32:21;;;;;;;15.43;2.58;;;;;;;7.44;100.00;103398.94;5063719;28;20066;-73
2022/01/22 03:35:11;;;;;;;10.32;2.35;;;;;;;7.62;100.00;103393.81;5063080;28;20105;-73
2022/01/22 03:37:38;;;;;;;11.02;2.08;;;;;;;7.76;100.00;103402.94;5092848;28;20369;-74
2022/01/22 03:40:06;;;;;;;14.45;2.47;;;;;;;7.57;100.00;103395.44;5102432;28;20365;-73
2022/01/22 03:42:31;;;;;;;18.42;2.80;;;;;;;7.69;100.00;103402.91;5083537;28;20043;-72
2022/01/22 03:44:57;;;;;;;15.88;3.13;;;;;;;7.92;100.00;103407.25;5088324;28;20032;-74
2022/01/22 03:47:22;;;;;;;16.35;3.20;;;;;;;7.79;100.00;103401.69;5092412;28;20420;-73
2022/01/22 03:49:48;;;;;;;15.20;2.78;;;;;;;8.04;100.00;103400.16;5092402;28;20499;-72
2022/01/22 03:52:13;;;;;;;11.40;2.97;;;;;;;7.87;100.00;103396.06;5101606;28;20593;-73
2022/01/22 03:54:39;;;;;;;11.32;3.08;;;;;;;7.52;100.00;103393.31;5088966;28;20450;-74
2022/01/22 03:57:07;;;;;;;16.05;3.08;;;;;;;7.50;100.00;103393.50;5096655;28;20027;-74
2022/01/22 03:59:32;;;;;;;12.57;2.83;;;;;;;7.62;100.00;103396.53;5090986;28;20371;-73
2022/01/22 04:04:38;;;;;;;13.48;2.75;;;;;;;7.49;100.00;103405.50;5092371;28;20114;-72
2022/01/22 04:09:35;;;;;;;17.50;3.22;;;;;;;7.86;100.00;103413.50;5089710;28;20044;-73
2022/01/22 04:12:01;;;;;;;12.73;3.05;;;;;;;7.82;100.00;103417.66;5092580;28;20482;-73
2022/01/22 04:14:32;;;;;;;12.50;2.42;;;;;;;7.66;100.00;103429.75;5083544;28;20035;-73
2022/01/22 04:24:59;;;;;;;15.35;3.03;;;;;;;7.81;100.00;103422.28;5079076;28;20038;-73
2022/01/22 04:27:27;;;;;;;12.68;2.50;;;;;;;7.49;100.00;103418.28;5100609;28;20361;-74
2022/01/22 04:29:57;;;;;;;11.32;2.70;;;;;;;7.69;100.00;103412.94;5065534;28;20085;-72
2022/01/22 04:32:23;;;;;;;12.75;2.80;;;;;;;7.37;100.00;103417.97;5102113;28;20142;-73
2022/01/22 04:34:48;;;;;;;14.13;3.28;;;;;;;7.28;100.00;103411.84;5100010;28;20479;-72
2022/01/22 04:37:14;;;;;;;13.00;2.13;;;;;;;7.40;100.00;103411.28;5083838;28;20430;-73
2022/01/22 04:39:40;;;;;;;11.68;2.45;;;;;;;7.34;100.00;103410.19;5064280;28;20422;-74
2022/01/22 04:42:06;;;;;;;9.80;2.40;;;;;;;7.50;100.00;103392.69;5083436;28;20518;-73
2022/01/22 04:44:38;;;;;;;9.98;2.33;;;;;;;7.38;100.00;103408.75;5082926;28;20028;-74
2022/01/22 04:55:03;;;;;;;8.65;2.10;;;;;;;7.71;100.00;103402.69;5096201;28;20279;-73
2022/01/22 04:57:32;;;;;;;8.57;2.38;;;;;;;7.66;100.00;103403.28;5084739;28;20035;-72
2022/01/22 04:59:58;;;;;;;11.10;2.63;;;;;;;7.40;100.00;103403.09;5100756;28;20028;-73
2022/01/22 05:02:23;;;;;;;7.18;2.55;;;;;;;7.38;100.00;103399.72;5083706;28;20474;-72
2022/01/22 05:04:49;;;;;;;13.88;2.67;;;;;;;7.29;100.00;103394.41;5080230;28;20032;-73
2022/01/22 05:07:15;;;;;;;10.63;3.13;;;;;;;7.34;100.00;103397.38;5080379;28;20044;-73
2022/01/22 05:09:40;;;;;;;11.25;2.80;;;;;;;7.42;100.00;103392.81;5062391;28;20036;-72
2022/01/22 05:12:07;;;;;;;13.25;3.30;;;;;;;7.27;100.00;103401.13;5085890;28;20028;-73
2022/01/22 05:14:33;;;;;;;11.68;2.65;;;;;;;7.41;100.00;103404.78;5086413;28;20591;-73
2022/01/22 05:17:02;;;;;;;12.65;2.70;;;;;;;7.62;100.00;103395.69;5093270;28;20057;-73
2022/01/22 05:19:43;;;;;;;9.05;2.60;;;;;;;7.65;100.00;103392.56;5106191;28;20024;-73
2022/01/22 05:24:46;;;;;;;9.40;2.58;;;;;;;7.68;100.00;103394.91;5097474;28;20020;-74
2022/01/22 05:27:41;;;;;;;13.65;2.40;;;;;;;7.81;100.00;103389.53;5103017;28;20556;-73
2022/01/22 05:38:05;;;;;;;14.43;2.97;;;;;;;7.71;100.00;103387.16;5084747;28;20160;-73
2022/01/22 05:40:30;;;;;;;10.57;3.00;;;;;;;7.60;100.00;103392.31;5105029;28;20438;-72
2022/01/22 05:42:56;;;;;;;11.70;3.10;;;;;;;7.70;100.00;103390.91;5101739;28;20194;-74
2022/01/22 05:45:22;;;;;;;18.30;3.53;;;;;;;7.81;100.00;103394.16;5095018;28;20084;-73
2022/01/22 05:47:47;;;;;;;13.90;3.05;;;;;;;8.02;100.00;103395.94;5083564;28;20036;-73
2022/01/22 05:50:26;;;;;;;15.65;3.42;;;;;;;7.77;100.00;103404.59;5104630;28;20038;-73
2022/01/22 05:52:57;;;;;;;18.77;3.42;;;;;;;7.97;100.00;103412.06;5099446;28;20106;-72
2022/01/22 06:00:41;;;;;;;12.13;2.90;;;;;;;7.85;100.00;103417.25;5081319;28;20081;-73
2022/01/22 06:03:07;;;;;;;11.00;3.40;;;;;;;7.66;100.00;103413.38;5085879;28;20028;-73
2022/01/22 06:05:32;;;;;;;13.02;2.97;;;;;;;7.96;100.00;103418.59;5085213;28;20032;-73
2022/01/22 06:07:58;;;;;;;11.82;3.45;;;;;;;7.65;100.00;103417.13;5081346;28;20036;-74
2022/01/22 06:10:28;;;;;;;12.68;4.00;;;;;;;7.75;100.00;103428.53;5085636;28;20566;-71
2022/01/22 06:13:09;;;;;;;14.82;4.45;;;;;;;7.48;100.00;103417.44;5085718;28;20034;-72
2022/01/22 06:15:39;;;;;;;12.85;3.17;;;;;;;7.78;100.00;103419.13;5095122;28;20050;-72
2022/01/22 06:18:04;;;;;;;11.32;3.88;;;;;;;7.48;100.00;103427.53;5082433;28;20038;-73
2022/01/22 06:20:30;;;;;;;11.93;3.95;;;;;;;7.89;100.00;103422.13;5083260;28;20394;-73
2022/01/22 06:22:55;;;;;;;10.48;3.33;;;;;;;7.72;100.00;103427.06;5080101;28;20043;-73
2022/01/22 06:25:21;;;;;;;14.43;4.20;;;;;;;7.72;100.00;103418.03;5084639;28;20425;-73
2022/01/22 06:27:46;;;;;;;20.05;4.13;;;;;;;8.01;100.00;103419.66;5089228;28;20424;-73
2022/01/22 06:30:12;;;;;;;13.38;3.70;;;;;;;7.77;100.00;103421.00;5089899;28;20028;-73
2022/01/22 06:32:38;;;;;;;15.85;3.58;;;;;;;7.87;100.00;103426.09;5081539;28;20482;-72
2022/01/22 06:35:04;;;;;;;14.18;3.92;;;;;;;7.73;100.00;103425.19;5081993;28;20446;-73
2022/01/22 06:37:30;;;;;;;19.02;3.90;;;;;;;7.80;100.00;103427.94;5086404;28;20057;-73
2022/01/22 06:42:34;;;;;;;16.20;4.38;;;;;;;7.87;100.00;103439.75;5088164;28;20032;-74
2022/01/22 06:45:00;;;;;;;13.25;4.20;;;;;;;7.45;100.00;103444.28;5089083;28;20414;-72
2022/01/22 06:47:27;;;;;;;15.45;4.28;;;;;;;7.68;100.00;103444.06;5103366;28;20062;-72
2022/01/22 06:49:53;;;;;;;10.98;3.70;;;;;;;7.59;100.00;103448.81;5100661;28;20087;-73
2022/01/22 06:52:20;;;;;;;14.85;4.40;;;;;;;7.79;100.00;103451.69;5101956;28;20259;-72
2022/01/22 06:54:46;;;;;;;13.18;3.65;;;;;;;7.94;100.00;103443.38;5099687;28;20025;-73
2022/01/22 06:57:12;;;;;;;14.93;4.00;;;;;;;7.79;100.00;103453.56;5081178;28;20042;-73
2022/01/22 06:59:39;;;;;;;15.65;4.28;;;;;;;7.96;100.00;103446.75;5096547;28;20398;-75
2022/01/22 07:02:06;;;;;;;14.10;3.80;;;;;;;7.73;100.00;103447.03;5087528;28;20164;-73
2022/01/22 07:04:36;;;;;;;11.43;3.60;;;;;;;7.80;100.00;103456.09;5090324;28;20053;-72
2022/01/22 07:07:03;;;;;;;10.30;4.05;;;;;;;7.51;100.00;103455.28;5097861;28;20548;-73
2022/01/22 07:09:28;;;;;;;10.43;4.47;;;;;;;7.36;100.00;103458.09;5101395;28;20481;-74
2022/01/22 07:11:54;;;;;;;11.30;4.07;;;;;;;7.40;100.00;103452.25;5065855;28;20035;-72
2022/01/22 07:14:19;;;;;;;12.70;3.83;;;;;;;7.61;100.00;103457.66;5078688;28;20059;-73
2022/01/22 07:16:45;;;;;;;10.70;3.95;;;;;;;7.61;100.00;103457.66;5065305;28;20089;-73
2022/01/22 07:19:17;;;;;;;13.95;4.22;;;;;;;7.61;100.00;103459.53;5079166;28;20051;-71
2022/01/22 07:21:46;;;;;;;11.93;3.87;;;;;;;7.32;100.00;103451.31;5084127;28;20036;-73
2022/01/22 07:24:23;;;;;;;8.13;3.83;;;;;;;7.55;100.00;103444.78;5064119;28;20039;-72
2022/01/22 07:26:53;;;;;;;10.35;4.18;;;;;;;7.85;100.00;103448.16;5080903;28;20406;-73
2022/01/22 07:29:18;;;;;;;15.68;4.40;;;;;;;7.39;100.00;103447.81;5084390;28;20446;-70
2022/01/22 07:31:45;;;;;;;12.70;4.00;;;;;;;7.83;100.00;103446.69;5084262;28;20039;-72
2022/01/22 07:34:10;;;;;;;11.05;3.97;;;;;;;7.83;100.00;103447.50;5065246;28;20546;-72
2022/01/22 07:36:36;;;;;;;16.90;4.72;;;;;;;7.57;100.00;103442.69;5084258;28;20069;-71
2022/01/22 07:39:02;;;;;;;11.80;3.90;;;;;;;7.87;100.00;103437.88;5081034;28;20032;-74
2022/01/22 07:41:27;;;;;;;11.82;4.00;;;;;;;7.84;100.00;103435.56;5084404;28;20028;-72
2022/01/22 07:43:53;;;;;;;10.57;4.63;;;;;;;7.95;100.00;103439.59;5080474;28;20024;-73
2022/01/22 07:46:18;;;;;;;12.07;4.75;;;;;;;7.57;100.00;103441.88;5084424;28;20053;-74
2022/01/22 07:48:45;;;;;;;13.10;4.32;;;;;;;7.87;100.00;103437.03;5083853;28;20020;-71
2022/01/22 07:51:10;;;;;;;14.45;4.07;;;;;;;7.46;100.00;103443.25;5065961;28;20185;-73
2022/01/22 07:53:36;;;;;;;15.43;4.45;;;;;;;7.87;100.00;103429.69;5081883;28;20028;-72
2022/01/22 07:56:01;;;;;;;17.33;4.45;;;;;;;7.76;100.00;103430.25;5083360;28;20059;-73
2022/01/22 07:58:26;;;;;;;10.80;4.60;;;;;;;7.87;100.00;103432.44;5067298;28;20035;-73
2022/01/22 08:00:52;;;;;;;14.07;4.38;;;;;;;7.73;100.00;103431.47;5065340;28;20500;-72
2022/01/22 08:03:17;;;;;;;12.65;4.55;;;;;;;7.82;100.00;103434.06;5085631;28;20750;-73
2022/01/22 08:05:44;;;;;;;14.45;4.38;;;;;;;7.84;100.00;103435.56;5085932;28;20073;-71
2022/01/22 08:08:09;;;;;;;15.00;4.43;;;;;;;7.88;100.00;103427.78;5102284;28;20120;-73
2022/01/22 08:10:35;;;;;;;10.70;3.90;;;;;;;7.77;100.00;103431.91;5105500;28;20536;-73
2022/01/22 08:13:00;;;;;;;11.90;4.20;;;;;;;7.78;100.00;103435.50;5069275;28;20034;-72
2022/01/22 08:15:25;;;;;;;12.23;4.47;;;;;;;7.60;100.00;103430.56;5108131;28;20087;-72
2022/01/22 08:17:51;;;;;;;10.88;4.05;;;;;;;7.48;100.00;103431.09;5088769;28;20020;-73
2022/01/22 08:20:17;;;;;;;12.65;4.28;;;;;;;7.29;100.00;103439.97;5070787;28;20548;-74
2022/01/22 08:22:43;;;;;;;13.60;4.03;;;;;;;7.47;100.00;103436.75;5085063;28;20084;-74
2022/01/22 08:25:10;;;;;;;16.30;5.13;;;;;;;7.61;100.00;103441.28;5102680;28;20457;-72
2022/01/22 08:28:53;;;;;;;16.33;4.82;;;;;;;7.50;100.00;103444.53;5086641;28;20012;-73
2022/01/22 08:30:29;;;;;;;10.80;4.60;;;;;;;7.51;100.00;103447.06;5082153;28;20040;-72
2022/01/22 08:38:05;;;;;;;13.30;4.35;;;;;;;7.79;100.00;103448.97;5080289;28;20130;-72
2022/01/22 08:40:30;;;;;;;9.63;3.90;;;;;;;7.61;100.00;103445.88;5071127;28;20492;-73
2022/01/22 08:42:55;;;;;;;9.35;4.85;;;;;;;7.33;100.00;103447.56;5082635;28;20028;-72
2022/01/22 08:45:21;;;;;;;10.32;4.40;;;;;;;7.73;100.00;103447.88;5103245;28;20024;-71
2022/01/22 08:47:46;;;;;;;12.50;4.82;;;;;;;7.57;100.00;103444.59;5106149;28;20023;-72
2022/01/22 08:50:12;;;;;;;13.20;4.85;;;;;;;7.60;100.00;103449.66;5102088;28;20035;-72
2022/01/22 08:52:37;;;;;;;16.95;4.85;;;;;;;7.42;100.00;103456.44;5085534;28;20161;-71
2022/01/22 08:55:04;;;;;;;14.80;5.03;;;;;;;7.72;100.00;103461.72;5083424;28;20393;-72
2022/01/22 08:57:29;;;;;;;8.70;4.55;;;;;;;7.63;100.00;103465.66;5086856;28;20031;-73
2022/01/22 08:59:55;;;;;;;15.30;4.40;;;;;;;7.83;100.00;103463.91;5092007;28;20031;-72
2022/01/22 09:02:21;;;;;;;8.30;4.22;;;;;;;8.03;100.00;103458.56;5105444;28;20023;-72
2022/01/22 09:04:46;;;;;;;12.52;4.68;;;;;;;7.94;100.00;103459.78;5089368;28;20070;-73
2022/01/22 09:07:12;;;;;;;11.65;4.55;;;;;;;8.11;100.00;103457.56;5103700;28;20448;-72
2022/01/22 09:09:38;;;;;;;11.77;4.95;;;;;;;7.66;100.00;103466.09;5107341;28;20024;-72
2022/01/22 09:12:06;;;;;;;18.42;5.35;;;;;;;7.60;100.00;103466.03;5097253;28;20042;-71
2022/01/22 09:14:32;;;;;;;11.32;4.90;;;;;;;7.64;100.00;103460.00;5087728;28;20170;-73
2022/01/22 09:16:59;;;;;;;11.30;4.43;;;;;;;7.98;100.00;103466.50;5083267;28;20135;-71
2022/01/22 09:19:32;;;;;;;9.10;4.40;;;;;;;7.93;100.00;103468.19;5084039;28;20165;-72
2022/01/22 09:22:01;;;;;;;10.55;4.35;;;;;;;8.22;100.00;103472.56;5093765;28;20434;-73
2022/01/22 09:24:26;;;;;;;11.52;5.10;;;;;;;8.15;100.00;103468.94;5103108;28;20035;-73
2022/01/22 09:26:56;;;;;;;13.10;5.18;;;;;;;8.23;100.00;103474.22;5088325;28;20043;-71
2022/01/22 09:29:23;;;;;;;10.95;4.55;;;;;;;8.20;100.00;103463.69;5055310;28;20500;-71
2022/01/22 09:31:50;;;;;;;11.82;4.72;;;;;;;8.14;100.00;103472.72;5106435;28;20020;-72
2022/01/22 09:34:16;;;;;;;15.40;5.88;;;;;;;7.99;100.00;103481.88;5070260;28;20703;-72
2022/01/22 09:36:41;;;;;;;14.32;4.88;;;;;;;8.04;100.00;103494.94;5105142;28;20046;-72
2022/01/22 09:39:07;;;;;;;13.55;4.55;;;;;;;7.72;100.00;103491.75;5102218;28;20247;-73
2022/01/22 09:41:33;;;;;;;11.35;4.65;;;;;;;8.01;100.00;103490.72;5107899;28;20099;-74
2022/01/22 09:43:58;;;;;;;16.90;4.90;;;;;;;8.32;100.00;103499.53;5100827;28;20032;-72
2022/01/22 09:46:28;;;;;;;11.10;4.80;;;;;;;8.44;100.00;103497.94;5071212;28;20023;-72
2022/01/22 09:48:56;;;;;;;12.48;4.65;;;;;;;8.37;100.00;103500.59;5066466;28;20079;-72
2022/01/22 09:51:22;;;;;;;14.07;4.82;;;;;;;8.62;100.00;103494.63;5082391;28;20467;-72
2022/01/22 09:53:48;;;;;;;10.88;4.70;;;;;;;8.40;100.00;103489.25;5050795;28;20115;-72
2022/01/22 09:56:20;;;;;;;11.75;4.68;;;;;;;8.32;100.00;103500.34;5086247;28;20083;-72
2022/01/22 09:58:45;;;;;;;16.65;5.45;;;;;;;8.60;100.00;103503.03;5090612;28;20115;-72
2022/01/22 10:01:28;;;;;;;11.35;5.43;;;;;;;8.75;100.00;103510.28;5088926;28;20412;-72
2022/01/22 10:03:57;;;;;;;15.02;5.15;;;;;;;8.75;100.00;103505.63;5084394;28;20028;-70
2022/01/22 10:06:26;;;;;;;13.25;5.53;;;;;;;8.69;100.00;103501.00;5093118;28;20541;-73
2022/01/22 10:09:04;;;;;;;12.93;5.25;;;;;;;8.68;100.00;103503.94;5089250;28;20028;-73
2022/01/22 10:11:29;;;;;;;10.57;5.20;;;;;;;8.40;100.00;103505.66;5088862;28;20038;-72
2022/01/22 10:13:59;;;;;;;15.73;5.65;;;;;;;8.50;100.00;103516.25;5056211;28;20024;-71
2022/01/22 10:16:26;;;;;;;17.48;5.30;;;;;;;8.42;100.00;103522.69;5085897;28;20067;-73
2022/01/22 10:19:12;;;;;;;11.43;5.72;;;;;;;8.28;100.00;103520.97;5085366;28;20394;-71
2022/01/22 10:21:41;;;;;;;17.60;6.28;;;;;;;8.09;100.00;103523.34;5093981;28;20027;-72
2022/01/22 10:24:28;;;;;;;14.05;6.20;;;;;;;8.14;100.00;103522.75;5102037;28;20027;-71
2022/01/22 10:27:20;;;;;;;9.82;6.18;;;;;;;8.60;100.00;103524.09;5103327;28;20027;-71
2022/01/22 10:29:54;;;;;;;15.95;6.65;;;;;;;8.61;100.00;103523.06;5082762;28;20043;-71
2022/01/22 10:32:35;;;;;;;15.07;6.13;;;;;;;8.36;100.00;103522.66;5082196;28;20036;-71
2022/01/22 10:35:10;;;;;;;10.77;6.07;;;;;;;8.35;100.00;103521.81;5084106;28;20048;-72
2022/01/22 10:37:36;;;;;;;17.38;7.07;;;;;;;8.21;100.00;103518.16;5104507;28;20072;-73
2022/01/22 10:40:26;;;;;;;19.40;6.90;;;;;;;7.97;100.00;103516.75;5101067;28;20031;-71
2022/01/22 10:42:52;;;;;;;16.73;6.72;;;;;;;8.43;100.00;103521.69;5083798;28;20049;-72
2022/01/22 10:45:26;;;;;;;15.68;6.50;;;;;;;8.38;100.00;103515.97;5082701;28;20298;-71
2022/01/22 10:48:13;;;;;;;18.40;7.80;;;;;;;8.34;100.00;103511.94;5086089;28;20015;-72
2022/01/22 10:50:38;;;;;;;18.50;7.20;;;;;;;7.96;100.00;103516.94;5105687;28;20043;-72
2022/01/22 10:53:04;;;;;;;12.77;6.90;;;;;;;8.23;100.00;103510.63;5099591;28;20023;-71
2022/01/22 10:55:29;;;;;;;14.30;7.18;;;;;;;8.32;100.00;103516.75;5103708;28;20039;-71
2022/01/22 10:58:08;;;;;;;13.68;6.85;;;;;;;8.16;100.00;103526.13;5103753;28;20039;-72
2022/01/22 11:00:35;;;;;;;14.68;6.55;;;;;;;8.23;100.00;103513.34;5105549;28;20036;-72
2022/01/22 11:03:22;;;;;;;14.32;7.05;;;;;;;8.10;100.00;103518.75;5103601;28;20374;-72
2022/01/22 11:05:48;;;;;;;10.75;6.88;;;;;;;8.24;100.00;103523.22;5095874;28;20031;-72
2022/01/22 11:08:14;;;;;;;15.95;7.28;;;;;;;8.31;100.00;103523.25;5094332;28;20332;-71
2022/01/22 11:10:41;;;;;;;16.73;7.22;;;;;;;8.64;100.00;103512.53;5087040;28;20028;-73
2022/01/22 11:13:06;;;;;;;14.45;7.45;;;;;;;8.63;100.00;103518.22;5093732;28;20036;-71
2022/01/22 11:15:34;;;;;;;17.70;7.63;;;;;;;8.54;100.00;103522.16;5084811;28;20035;-71
2022/01/22 11:18:01;;;;;;;13.88;7.53;;;;;;;8.56;100.00;103525.53;5081043;28;20055;-71
2022/01/22 11:20:27;;;;;;;15.82;9.38;;;;;;;8.57;100.00;103524.50;5076292;28;20481;-71
2022/01/22 11:22:53;;;;;;;16.23;8.30;;;;;;;8.71;100.00;103530.88;5078776;28;20040;-71
2022/01/22 11:25:20;;;;;;;14.00;7.80;;;;;;;8.61;100.00;103532.09;5094178;28;20023;-71
2022/01/22 11:27:47;;;;;;;15.95;7.93;;;;;;;8.37;100.00;103536.13;5076738;28;20020;-71
2022/01/22 11:30:16;;;;;;;14.13;7.70;;;;;;;8.30;100.00;103538.00;5084430;28;20034;-71
2022/01/22 11:32:54;;;;;;;13.20;8.10;;;;;;;8.58;100.00;103531.66;5093245;28;20490;-72
2022/01/22 11:35:23;;;;;;;14.95;7.75;;;;;;;8.45;100.00;103532.44;5093400;28;20534;-72
2022/01/22 11:38:04;;;;;;;15.80;7.78;;;;;;;7.84;100.00;103527.59;5097542;28;20039;-71
2022/01/22 11:40:33;;;;;;;14.63;8.57;;;;;;;7.95;100.00;103529.75;5089813;28;20031;-72
2022/01/22 11:43:09;;;;;;;21.45;9.57;;;;;;;8.28;100.00;103532.72;5082845;28;20023;-72
2022/01/22 11:45:40;;;;;;;19.05;10.15;;;;;;;8.24;100.00;103534.16;5092547;28;20024;-72
2022/01/22 11:48:13;;;;;;;13.05;8.02;;;;;;;7.96;100.00;103534.19;5082858;28;20073;-72
2022/01/22 11:50:40;;;;;;;11.82;8.10;;;;;;;8.44;100.00;103531.59;5099862;28;21996;-71
2022/01/22 11:53:22;;;;;;;13.82;8.90;;;;;;;8.36;100.00;103529.00;5085159;28;20335;-72
2022/01/22 11:56:28;;;;;;;14.65;9.07;;;;;;;8.41;100.00;103521.03;5084842;28;20070;-72
2022/01/22 11:58:57;;;;;;;15.93;8.98;;;;;;;8.40;100.00;103524.78;5095911;28;20514;-71
2022/01/22 12:01:56;;;;;;;18.65;8.30;;;;;;;8.15;100.00;103520.84;5103405;28;20585;-71
2022/01/22 12:04:28;;;;;;;13.13;8.82;;;;;;;8.09;100.00;103517.88;5066630;28;20334;-69
2022/01/22 12:07:07;;;;;;;15.63;9.05;;;;;;;8.18;100.00;103515.84;5060251;28;20036;-68
2022/01/22 12:16:44;;;;;;;19.75;12.40;;;;;;;8.35;100.00;103519.09;5012768;28;20566;-69
2022/01/22 12:20:16;;;;;;;24.80;19.00;;;;;;;8.27;100.00;103513.78;5071299;28;20393;-69
2022/01/22 12:22:37;;;;;;;19.42;13.20;;;;;;;8.19;100.00;103506.59;5101040;28;20040;-67
2022/01/22 12:25:22;;;;;;;20.00;11.27;;;;;;;7.91;100.00;103515.66;5106054;28;20037;-68
2022/01/22 12:27:50;;;;;;;18.73;14.48;;;;;;;8.14;100.00;103514.53;5080001;28;20054;-69
2022/01/22 12:30:33;;;;;;;22.42;13.90;;;;;;;7.86;100.00;103517.28;5078623;28;20664;-69
2022/01/22 12:33:00;;;;;;;;;;;;;;;7.98;100.00;103521.16;5083221;28;20047;-69
2022/01/22 12:35:32;;;;;;;22.05;13.75;;;;;;;7.79;100.00;103516.38;5091017;28;20038;-67
2022/01/22 12:38:23;;;;;;;19.05;12.35;;;;;;;7.69;100.00;103520.31;5099540;28;20235;-68
2022/01/22 12:40:55;;;;;;;17.20;13.15;;;;;;;7.95;100.00;103513.34;5101384;28;20059;-69
2022/01/22 12:43:33;;;;;;;18.85;13.63;;;;;;;7.83;100.00;103521.25;5099706;28;20453;-67
2022/01/22 12:46:02;;;;;;;21.70;13.50;;;;;;;7.99;100.00;103522.84;5100432;28;20420;-69
2022/01/22 12:48:30;;;;;;;20.50;14.77;;;;;;;8.30;100.00;103516.13;5099769;28;20020;-68
2022/01/22 12:51:01;;;;;;;23.45;13.43;;;;;;;7.98;100.00;103520.31;5073542;28;20058;-68
2022/01/22 12:53:26;;;;;;;20.33;14.05;;;;;;;8.01;100.00;103515.28;5073639;28;20032;-69
2022/01/22 12:58:28;;;;;;;19.98;14.43;;;;;;;7.86;100.00;103504.47;5078597;28;20039;-67
2022/01/22 13:01:13;;;;;;;22.42;15.30;;;;;;;7.64;100.00;103500.94;5091440;28;20516;-71